Randle, WA (98377)

2:18 PM PST on December 20, 2014 (GMT -0800)
Lost Creek | Change Station
CLOSE
Current Station
Personal Weather Station
Location: Glenoma, WA
Elevation: 1119 ft
Nearby Weather Stations

Elev 1119 ft 46.54 °N, 122.06 °W | Updated 1 second ago

Mostly Cloudy
Mostly Cloudy
42.8 °F
Feels Like 43 °F
N
2.0
Wind Variable Wind from NE
Gusts 3.1 mph

Today
High -- | Low -- °F
--% Chance of Precip.
Yesterday
High -- | Low -- °F
Precip. -- in
7:48 AM 4:22 PM
Waning Crescent, 2% visible
Pressure 29.53 in
Visibility 10.0 miles
Clouds Few 1900 ft
Overcast 2700 ft
Windchill 43 °F
Dew Point 42 °F
Humidity 98%
Rainfall 0.00 in
Snow Depth Not available.
UV out of 12
Pollen .50 out of 12
Air Quality Not available.
Flu Activity Not available.
METAR KGRF 202158Z 14006KT 10SM FEW019 OVC027 09/09 A2951 RMK SLP998

More Conditions Fewer Conditions

Pressure 29.53 in
Visibility 10.0 miles
Clouds Few 1900 ft
Overcast 2700 ft
Windchill 43 °F
Dew Point 42 °F
Humidity 98%
Rainfall 0.00 in
Snow Depth Not available.
UV out of 12
Pollen .50 out of 12
Air Quality Not available.
Flu Activity Not available.
METAR KGRF 202158Z 14006KT 10SM FEW019 OVC027 09/09 A2951 RMK SLP998

More Conditions Fewer Conditions

10-Day Weather Forecast

Almanac

Astronomy

Dec. 20, 2014 Rise Set
Actual Time
Civil Twilight
Nautical Twilight
Astronomical Twilight
Moon
Length of Visible Light
Length of Day
Tomorrow will be .
, % of the Moon is Illuminated

Today's Extremes

State Highs State Lows

Community

WunderPhotos

Upload Photos

1,779,291 photos uploaded!

WunderBlogs® & News

Nearby

Air Quality

  Air Quality AQ Index Pollutant
Not available.

Snow Depth

Station Depth Elevation

Earthquake Activity

City Distance Mag. Time & Date
Minimum magnitude displayed is 2.5.

Coastal Water Temperatures

Place Temperature

Nearby Weather Stations